createdAt,value
2018-06-09T00:02:06.333Z,87.55
2018-06-09T00:04:34.086Z,88.01
2018-06-09T00:07:01.835Z,88.42
2018-06-09T00:09:29.611Z,88.08
2018-06-09T00:11:57.355Z,86.77
2018-06-09T00:14:25.140Z,87.07
2018-06-09T00:16:52.819Z,88.34
2018-06-09T00:19:20.558Z,88.94
2018-06-09T00:21:48.340Z,88.56
2018-06-09T00:24:16.190Z,88.60
2018-06-09T00:26:43.972Z,89.03
2018-06-09T00:29:11.715Z,89.40
2018-06-09T00:31:39.431Z,88.17
2018-06-09T00:34:07.105Z,87.55
2018-06-09T00:36:34.816Z,87.16
2018-06-09T00:39:02.688Z,87.38
2018-06-09T00:41:30.366Z,87.73
2018-06-09T00:43:58.126Z,88.81
2018-06-09T00:46:25.877Z,89.82
2018-06-09T00:48:53.592Z,90.04
2018-06-09T00:51:21.285Z,90.05
2018-06-09T00:53:48.984Z,89.78
2018-06-09T00:56:22.499Z,88.63
2018-06-09T00:58:50.166Z,88.06
2018-06-09T01:01:17.906Z,88.06
2018-06-09T01:03:45.591Z,88.31
2018-06-09T01:06:13.304Z,88.41
2018-06-09T01:08:41.095Z,87.72
2018-06-09T01:11:08.802Z,86.89
2018-06-09T01:13:36.544Z,87.29
2018-06-09T01:16:04.370Z,87.86
2018-06-09T01:18:32.086Z,87.75
2018-06-09T01:20:59.810Z,88.20
2018-06-09T01:23:27.602Z,88.03
2018-06-09T01:25:55.381Z,87.69
2018-06-09T01:28:23.083Z,87.54
2018-06-09T01:30:50.800Z,87.55
2018-06-09T01:33:18.567Z,87.89
2018-06-09T01:35:46.260Z,88.09
2018-06-09T01:38:13.960Z,88.22
2018-06-09T01:40:41.718Z,88.20
2018-06-09T01:43:09.507Z,87.96
2018-06-09T01:45:37.243Z,88.11
2018-06-09T01:48:04.972Z,87.99
2018-06-09T01:50:32.681Z,87.43
2018-06-09T01:53:00.419Z,87.51
2018-06-09T01:55:28.087Z,87.31
2018-06-09T01:57:55.845Z,87.60
2018-06-09T02:00:23.537Z,87.36
2018-06-09T02:02:51.302Z,87.32
2018-06-09T02:05:19.049Z,87.81
2018-06-09T02:07:46.746Z,87.83
2018-06-09T02:10:14.517Z,88.31
2018-06-09T02:12:42.192Z,88.31
2018-06-09T02:15:10.219Z,88.12
2018-06-09T02:17:37.934Z,87.89
2018-06-09T02:20:05.684Z,88.11
2018-06-09T02:22:33.419Z,88.03
2018-06-09T02:25:01.178Z,88.30
2018-06-09T02:27:28.895Z,88.12
2018-06-09T02:29:56.622Z,87.93
2018-06-09T02:32:24.343Z,88.18
2018-06-09T02:34:52.073Z,88.13
2018-06-09T02:37:19.774Z,88.02
2018-06-09T02:39:47.538Z,88.01
2018-06-09T02:42:15.348Z,87.73
2018-06-09T02:44:43.028Z,88.28
2018-06-09T02:47:10.758Z,88.22
2018-06-09T02:49:38.453Z,87.91
2018-06-09T02:52:06.172Z,87.54
2018-06-09T02:54:33.921Z,87.46
2018-06-09T02:57:01.656Z,86.76
2018-06-09T02:59:29.321Z,86.24
2018-06-09T03:01:57.019Z,85.91
2018-06-09T03:04:24.804Z,86.70
2018-06-09T03:06:52.622Z,87.00
2018-06-09T03:09:20.394Z,87.08
2018-06-09T03:11:48.162Z,87.39
2018-06-09T03:14:15.850Z,86.83
2018-06-09T03:16:43.594Z,86.63
2018-06-09T03:19:11.293Z,86.53
2018-06-09T03:21:39.131Z,87.11
2018-06-09T03:24:06.856Z,86.61
2018-06-09T03:26:34.594Z,86.66
2018-06-09T03:29:02.400Z,86.81
2018-06-09T03:31:30.163Z,87.04
2018-06-09T03:33:57.922Z,86.76
2018-06-09T03:36:25.730Z,86.48
2018-06-09T03:38:53.668Z,86.15
2018-06-09T03:41:21.611Z,86.23
2018-06-09T03:43:49.303Z,86.16
2018-06-09T03:46:17.223Z,86.38
2018-06-09T03:48:45.080Z,86.49
2018-06-09T03:51:12.820Z,85.89
2018-06-09T03:53:40.558Z,85.96
2018-06-09T03:56:08.290Z,86.18
2018-06-09T03:58:36.060Z,85.56
2018-06-09T04:01:03.874Z,85.81
2018-06-09T04:03:31.602Z,86.22
2018-06-09T04:05:59.396Z,86.33
2018-06-09T04:08:27.167Z,86.38
2018-06-09T04:10:54.860Z,86.01
2018-06-09T04:13:22.574Z,86.47
2018-06-09T04:15:50.283Z,86.00
2018-06-09T04:18:18.015Z,85.68
2018-06-09T04:20:45.723Z,85.31
2018-06-09T04:23:13.467Z,85.33
2018-06-09T04:25:41.178Z,85.05
2018-06-09T04:28:09.088Z,84.63
2018-06-09T04:30:36.812Z,84.83
2018-06-09T04:33:04.553Z,84.44
2018-06-09T04:35:32.307Z,84.51
2018-06-09T04:38:00.237Z,83.98
2018-06-09T04:40:27.924Z,83.58
2018-06-09T04:42:55.651Z,83.62
2018-06-09T04:45:23.382Z,83.08
2018-06-09T04:47:51.140Z,82.84
2018-06-09T04:50:18.888Z,83.32
2018-06-09T04:52:46.586Z,83.70
2018-06-09T04:55:14.306Z,82.96
2018-06-09T04:57:42.016Z,82.85
2018-06-09T05:00:09.742Z,83.82
2018-06-09T05:02:37.517Z,83.35
2018-06-09T05:05:05.259Z,82.83
2018-06-09T05:07:33.166Z,82.29
2018-06-09T05:10:00.865Z,82.51
2018-06-09T05:12:29.148Z,82.39
2018-06-09T05:14:56.902Z,81.63
2018-06-09T05:17:24.615Z,81.12
2018-06-09T05:19:52.338Z,80.96
2018-06-09T05:22:20.036Z,79.73
2018-06-09T05:24:47.753Z,80.32
2018-06-09T05:27:15.469Z,79.26
2018-06-09T05:29:43.203Z,78.26
2018-06-09T05:32:10.928Z,77.88
2018-06-09T05:34:38.657Z,77.37
2018-06-09T05:37:06.517Z,76.84
2018-06-09T05:39:34.220Z,76.10
2018-06-09T05:42:01.955Z,75.57
2018-06-09T05:44:29.676Z,74.65
2018-06-09T05:46:57.501Z,74.38
2018-06-09T05:49:25.285Z,74.57
2018-06-09T05:51:52.985Z,74.64
2018-06-09T05:54:20.691Z,75.40
2018-06-09T05:56:48.565Z,75.34
2018-06-09T05:59:16.268Z,76.42
2018-06-09T06:01:44.042Z,76.55
2018-06-09T06:04:11.898Z,77.22
2018-06-09T06:06:39.655Z,77.67
2018-06-09T06:09:07.570Z,76.61
2018-06-09T06:11:35.344Z,76.71
2018-06-09T06:14:03.187Z,77.79
2018-06-09T06:16:31.092Z,77.68
2018-06-09T06:18:58.816Z,78.52
2018-06-09T06:21:26.615Z,78.81
2018-06-09T06:23:54.816Z,78.67
2018-06-09T06:26:22.706Z,79.66
2018-06-09T06:28:50.464Z,79.19
2018-06-09T06:31:18.240Z,78.90
2018-06-09T06:33:45.932Z,78.47
2018-06-09T06:36:13.702Z,78.96
2018-06-09T06:38:41.536Z,78.70
2018-06-09T06:41:09.320Z,78.84
2018-06-09T06:43:37.081Z,78.86
2018-06-09T06:46:04.823Z,77.88
2018-06-09T06:48:32.519Z,77.27
2018-06-09T06:51:00.256Z,77.85
2018-06-09T06:53:28.070Z,77.64
2018-06-09T06:55:55.758Z,77.85
2018-06-09T06:58:23.545Z,78.57
2018-06-09T07:00:51.318Z,78.50
2018-06-09T07:03:19.035Z,78.45
2018-06-09T07:05:46.777Z,78.91
2018-06-09T07:08:14.479Z,79.00
2018-06-09T07:10:42.380Z,79.88
2018-06-09T07:13:10.199Z,79.73
2018-06-09T07:15:37.926Z,78.65
2018-06-09T07:18:05.667Z,78.70
2018-06-09T07:20:33.360Z,78.34
2018-06-09T07:23:01.140Z,77.74
2018-06-09T07:25:28.851Z,79.08
2018-06-09T07:27:56.580Z,80.09
2018-06-09T07:30:24.439Z,79.10
2018-06-09T07:32:52.183Z,78.75
2018-06-09T07:35:20.132Z,77.65
2018-06-09T07:37:47.878Z,77.65
2018-06-09T07:40:15.606Z,78.46
2018-06-09T07:42:43.393Z,78.54
2018-06-09T07:45:11.141Z,78.40
2018-06-09T07:47:38.872Z,78.03
2018-06-09T07:50:06.572Z,77.85
2018-06-09T07:52:34.332Z,76.91
2018-06-09T07:55:02.052Z,76.92
2018-06-09T07:57:29.810Z,76.92
2018-06-09T07:59:57.556Z,77.38
2018-06-09T08:02:25.410Z,77.46
2018-06-09T08:04:53.144Z,77.55
2018-06-09T08:07:20.838Z,77.40
2018-06-09T08:09:48.568Z,77.31
2018-06-09T08:20:56.340Z,72.36
2018-06-09T08:23:24.123Z,72.11
2018-06-09T08:25:51.878Z,70.88
2018-06-09T08:28:19.631Z,72.25
2018-06-09T08:30:47.366Z,71.37
2018-06-09T08:33:15.127Z,69.57
2018-06-09T08:35:42.892Z,69.07
2018-06-09T08:38:10.633Z,69.01
2018-06-09T08:40:38.367Z,67.86
2018-06-09T08:43:06.217Z,65.54
2018-06-09T08:45:33.969Z,65.06
2018-06-09T08:48:01.719Z,62.36
2018-06-09T08:50:29.526Z,62.48
2018-06-09T08:52:57.260Z,62.30
2018-06-09T08:55:25.005Z,62.06
2018-06-09T08:57:52.740Z,58.79
2018-06-09T09:00:20.449Z,57.60
2018-06-09T09:02:48.211Z,59.68
2018-06-09T09:05:15.943Z,58.68
2018-06-09T09:07:43.703Z,57.84
2018-06-09T09:10:11.498Z,56.96
2018-06-09T09:12:39.225Z,56.60
2018-06-09T09:15:06.992Z,52.37
2018-06-09T09:17:34.710Z,51.79
2018-06-09T09:20:02.415Z,51.72
2018-06-09T09:22:30.212Z,50.99
2018-06-09T09:24:57.930Z,51.47
2018-06-09T09:27:25.632Z,52.47
2018-06-09T09:29:53.357Z,50.48
2018-06-09T09:32:21.956Z,47.00
2018-06-09T09:34:49.875Z,45.52
2018-06-09T09:37:17.608Z,46.39
2018-06-09T09:39:45.339Z,44.76
2018-06-09T09:42:13.098Z,44.41
2018-06-09T09:44:40.790Z,42.77
2018-06-09T09:47:08.500Z,41.48
2018-06-09T09:49:36.218Z,40.55
2018-06-09T09:52:04.020Z,40.25
2018-06-09T09:54:31.706Z,37.97
2018-06-09T09:56:59.360Z,40.25
2018-06-09T09:59:27.085Z,39.81
2018-06-09T10:01:54.835Z,40.00
2018-06-09T10:04:22.553Z,41.90
2018-06-09T10:06:50.287Z,39.72
2018-06-09T10:09:17.997Z,38.52
2018-06-09T10:11:45.734Z,37.96
2018-06-09T10:14:13.463Z,37.11
2018-06-09T10:16:41.171Z,36.67
2018-06-09T10:19:08.891Z,36.07
2018-06-09T10:21:36.580Z,36.46
2018-06-09T10:24:04.360Z,36.03
2018-06-09T10:26:32.096Z,35.40
2018-06-09T10:28:59.867Z,37.03
2018-06-09T10:31:27.561Z,37.16
2018-06-09T10:33:55.299Z,39.04
2018-06-09T10:36:23.149Z,37.44
2018-06-09T10:38:50.860Z,36.57
2018-06-09T10:41:18.579Z,39.45
2018-06-09T10:43:46.328Z,38.25
2018-06-09T10:46:14.063Z,36.59
2018-06-09T10:48:41.767Z,36.67
2018-06-09T10:51:09.497Z,34.62
2018-06-09T10:53:37.190Z,35.78
2018-06-09T10:56:04.908Z,35.36
2018-06-09T10:58:32.711Z,36.79
2018-06-09T11:01:00.479Z,35.33
2018-06-09T11:03:28.347Z,34.98
2018-06-09T11:05:56.027Z,37.99
2018-06-09T11:08:23.796Z,37.55
2018-06-09T11:10:51.526Z,37.05
2018-06-09T11:13:19.225Z,37.00
2018-06-09T11:15:46.978Z,38.00
2018-06-09T11:18:14.791Z,35.45
2018-06-09T11:20:42.492Z,35.84
2018-06-09T11:23:10.222Z,37.02
2018-06-09T11:25:37.989Z,36.58
2018-06-09T11:28:05.720Z,35.26
2018-06-09T11:30:33.422Z,37.88
2018-06-09T11:33:01.167Z,38.51
2018-06-09T11:35:28.864Z,38.21
2018-06-09T11:37:56.555Z,37.96
2018-06-09T11:40:24.250Z,39.16
2018-06-09T11:42:51.954Z,38.88
2018-06-09T11:45:19.620Z,39.82
2018-06-09T11:47:47.306Z,41.32
2018-06-09T11:50:15.004Z,41.54
2018-06-09T11:52:42.704Z,40.99
2018-06-09T11:55:10.436Z,40.81
2018-06-09T11:57:38.155Z,40.46
2018-06-09T12:00:05.868Z,41.15
2018-06-09T12:02:33.591Z,40.46
2018-06-09T12:05:01.321Z,40.81
2018-06-09T12:07:29.051Z,40.91
2018-06-09T12:09:56.763Z,41.68
2018-06-09T12:12:24.514Z,42.02
2018-06-09T12:14:52.253Z,41.41
2018-06-09T12:17:20.217Z,42.11
2018-06-09T12:19:47.843Z,41.83
2018-06-09T12:22:15.566Z,42.55
2018-06-09T12:24:43.295Z,42.24
2018-06-09T12:27:11.002Z,43.06
2018-06-09T12:29:38.700Z,42.15
2018-06-09T12:32:06.453Z,42.50
2018-06-09T12:34:34.181Z,42.27
2018-06-09T12:37:01.906Z,44.22
2018-06-09T12:39:29.643Z,47.47
2018-06-09T12:41:57.559Z,45.39
2018-06-09T12:44:25.226Z,50.10
2018-06-09T12:46:52.909Z,54.68
2018-06-09T12:49:20.600Z,56.01
2018-06-09T12:51:48.312Z,56.47
2018-06-09T12:54:16.005Z,56.70
2018-06-09T12:56:43.708Z,56.72
2018-06-09T12:59:11.403Z,56.12
2018-06-09T13:01:39.086Z,59.18
2018-06-09T13:04:06.810Z,58.44
2018-06-09T13:06:34.486Z,61.09
2018-06-09T13:09:02.296Z,62.05
2018-06-09T13:11:30.039Z,62.66
2018-06-09T13:13:57.757Z,63.15
2018-06-09T13:16:25.501Z,63.53
2018-06-09T13:18:53.204Z,61.17
2018-06-09T13:21:20.910Z,59.10
2018-06-09T13:23:48.635Z,59.59
2018-06-09T13:26:16.319Z,62.83
2018-06-09T13:28:44.092Z,64.47
2018-06-09T13:31:11.860Z,65.01
2018-06-09T13:33:39.582Z,63.90
2018-06-09T13:36:07.352Z,63.47
2018-06-09T13:38:35.099Z,61.53
2018-06-09T13:41:02.790Z,60.20
2018-06-09T13:43:30.700Z,59.05
2018-06-09T13:45:58.439Z,64.37
2018-06-09T13:48:26.153Z,65.91
2018-06-09T13:50:53.931Z,65.99
2018-06-09T13:53:21.658Z,65.33
2018-06-09T13:55:49.356Z,64.82
2018-06-09T13:58:17.118Z,63.40
2018-06-09T14:00:44.822Z,62.72
2018-06-09T14:03:12.521Z,63.24
2018-06-09T14:05:40.225Z,64.86
2018-06-09T14:08:07.942Z,63.54
2018-06-09T14:10:35.736Z,63.81
2018-06-09T14:13:03.460Z,62.84
2018-06-09T14:15:31.235Z,62.53
2018-06-09T14:17:58.947Z,62.56
2018-06-09T14:20:26.644Z,62.55
2018-06-09T14:22:55.203Z,62.87
2018-06-09T14:25:23.167Z,63.61
2018-06-09T14:27:50.856Z,63.15
2018-06-09T14:30:18.555Z,62.72
2018-06-09T14:32:46.337Z,63.14
2018-06-09T14:35:14.064Z,64.91
2018-06-09T14:37:41.776Z,65.81
2018-06-09T14:40:09.511Z,67.72
2018-06-09T14:42:37.219Z,68.30
2018-06-09T14:45:05.018Z,68.96
2018-06-09T14:47:32.733Z,67.85
2018-06-09T14:50:00.434Z,68.22
2018-06-09T14:52:28.150Z,67.46
2018-06-09T14:54:56.120Z,67.77
2018-06-09T14:57:23.828Z,67.55
2018-06-09T14:59:51.547Z,66.50
2018-06-09T15:02:19.228Z,64.88
2018-06-09T15:04:46.962Z,63.44
2018-06-09T15:07:14.682Z,63.16
2018-06-09T15:09:42.419Z,63.43
2018-06-09T15:12:10.122Z,62.57
2018-06-09T15:14:37.838Z,63.50
2018-06-09T15:17:05.565Z,61.50
2018-06-09T15:19:33.336Z,65.77
2018-06-09T15:22:01.071Z,63.19
2018-06-09T15:24:28.839Z,63.60
2018-06-09T15:26:56.587Z,63.64
2018-06-09T15:29:24.272Z,61.85
2018-06-09T15:31:51.966Z,62.57
2018-06-09T15:34:19.696Z,61.34
2018-06-09T15:36:47.433Z,62.26
2018-06-09T15:39:15.469Z,62.56
2018-06-09T15:41:43.175Z,61.48
2018-06-09T15:44:10.891Z,61.90
2018-06-09T15:46:38.652Z,61.15
2018-06-09T15:49:06.336Z,60.74
2018-06-09T15:51:34.039Z,60.35
2018-06-09T15:54:01.759Z,60.19
2018-06-09T15:56:29.484Z,61.27
2018-06-09T15:58:57.247Z,60.81
2018-06-09T16:01:25.070Z,61.01
2018-06-09T16:03:52.803Z,59.95
2018-06-09T16:06:20.510Z,60.68
2018-06-09T16:08:48.249Z,62.48
2018-06-09T16:11:15.946Z,60.68
2018-06-09T16:13:43.707Z,59.68
2018-06-09T16:16:11.507Z,60.34
2018-06-09T16:18:39.246Z,61.08
2018-06-09T16:21:06.976Z,60.65
2018-06-09T16:23:34.660Z,56.77
2018-06-09T16:26:02.362Z,56.36
2018-06-09T16:28:30.125Z,53.42
2018-06-09T16:30:57.900Z,50.18
2018-06-09T16:33:25.572Z,51.43
2018-06-09T16:35:53.252Z,53.52
2018-06-09T16:38:20.967Z,54.33
2018-06-09T16:40:48.651Z,54.70
2018-06-09T16:43:16.373Z,55.40
2018-06-09T16:45:44.146Z,56.04
2018-06-09T16:48:11.891Z,56.02
2018-06-09T16:50:39.595Z,56.35
2018-06-09T16:53:07.299Z,57.26
2018-06-09T16:55:35.035Z,57.55
2018-06-09T16:58:02.874Z,57.56
2018-06-09T17:00:30.494Z,56.68
2018-06-09T17:02:58.159Z,57.48
2018-06-09T17:05:25.842Z,57.55
2018-06-09T17:07:53.567Z,57.07
2018-06-09T17:10:21.331Z,57.29
2018-06-09T17:12:49.035Z,57.33
2018-06-09T17:15:16.764Z,58.77
2018-06-09T17:17:44.530Z,60.96
2018-06-09T17:20:12.239Z,61.89
2018-06-09T17:22:39.953Z,62.09
2018-06-09T17:25:07.677Z,62.17
2018-06-09T17:27:35.397Z,62.29
2018-06-09T17:30:03.174Z,61.72
2018-06-09T17:32:30.914Z,62.09
2018-06-09T17:34:58.645Z,63.33
2018-06-09T17:37:26.359Z,64.11
2018-06-09T17:39:54.085Z,62.46
2018-06-09T17:42:21.803Z,62.26
2018-06-09T17:44:49.550Z,62.55
2018-06-09T17:47:17.259Z,63.38
2018-06-09T17:49:44.965Z,63.50
2018-06-09T17:52:12.696Z,62.58
2018-06-09T17:54:40.353Z,62.37
2018-06-09T17:57:08.081Z,63.05
2018-06-09T17:59:35.817Z,64.75
2018-06-09T18:02:03.591Z,67.77
2018-06-09T18:04:31.335Z,67.43
2018-06-09T18:06:59.167Z,67.38
2018-06-09T18:09:26.859Z,67.29
2018-06-09T18:11:54.554Z,67.74
2018-06-09T18:14:22.255Z,68.17
2018-06-09T18:16:49.985Z,68.12
2018-06-09T18:19:17.702Z,67.76
2018-06-09T18:21:45.409Z,68.30
2018-06-09T18:24:13.105Z,68.41
2018-06-09T18:26:40.816Z,68.79
2018-06-09T18:29:08.599Z,68.54
2018-06-09T18:31:36.370Z,68.90
2018-06-09T18:34:04.268Z,68.54
2018-06-09T18:36:31.969Z,69.01
2018-06-09T18:38:59.661Z,67.68
2018-06-09T18:41:27.342Z,67.43
2018-06-09T18:43:55.049Z,69.31
2018-06-09T18:46:22.757Z,69.77
2018-06-09T18:48:50.510Z,69.92
2018-06-09T18:51:18.212Z,69.13
2018-06-09T18:53:45.895Z,69.85
2018-06-09T18:56:13.593Z,70.45
2018-06-09T18:58:41.383Z,71.34
2018-06-09T19:01:09.114Z,71.74
2018-06-09T19:03:36.857Z,71.72
2018-06-09T19:06:04.628Z,72.13
2018-06-09T19:08:32.374Z,72.20
2018-06-09T19:11:00.272Z,72.65
2018-06-09T19:13:28.003Z,73.95
2018-06-09T19:15:55.731Z,73.01
2018-06-09T19:18:23.452Z,73.31
2018-06-09T19:20:51.164Z,72.59
2018-06-09T19:23:18.880Z,73.13
2018-06-09T19:25:46.655Z,73.16
2018-06-09T19:28:14.364Z,72.97
2018-06-09T19:30:42.111Z,72.80
2018-06-09T19:33:09.909Z,72.78
2018-06-09T19:35:37.625Z,73.30
2018-06-09T19:38:05.307Z,73.20
2018-06-09T19:40:33.211Z,72.97
2018-06-09T19:43:00.925Z,72.92
2018-06-09T19:45:28.971Z,73.10
2018-06-09T19:47:56.685Z,74.01
2018-06-09T19:50:24.407Z,73.52
2018-06-09T19:52:52.271Z,74.76
2018-06-09T19:55:19.993Z,75.26
2018-06-09T19:57:47.703Z,75.19
2018-06-09T20:00:15.467Z,73.61
2018-06-09T20:02:43.139Z,72.83
2018-06-09T20:05:10.918Z,73.32
2018-06-09T20:07:38.633Z,73.94
2018-06-09T20:10:06.411Z,74.77
2018-06-09T20:12:34.116Z,74.16
2018-06-09T20:15:01.931Z,75.27
2018-06-09T20:17:29.993Z,75.52
2018-06-09T20:19:57.657Z,76.87
2018-06-09T20:22:25.330Z,76.89
2018-06-09T20:24:53.130Z,77.05
2018-06-09T20:27:20.856Z,77.17
2018-06-09T20:29:48.603Z,76.57
2018-06-09T20:32:16.391Z,75.73
2018-06-09T20:34:44.143Z,75.68
2018-06-09T20:37:11.907Z,76.92
2018-06-09T20:39:39.646Z,76.07
2018-06-09T20:42:07.464Z,76.87
2018-06-09T20:44:35.205Z,76.42
2018-06-09T20:47:02.970Z,76.57
2018-06-09T20:49:30.693Z,76.60
2018-06-09T20:51:58.480Z,76.82
2018-06-09T20:54:26.256Z,77.66
2018-06-09T20:56:53.993Z,77.26
2018-06-09T20:59:21.800Z,77.53
2018-06-09T21:01:49.619Z,78.31
2018-06-09T21:04:17.315Z,76.74
2018-06-09T21:06:44.998Z,76.98
2018-06-09T21:09:12.747Z,77.92
2018-06-09T21:11:40.486Z,78.06
2018-06-09T21:14:08.267Z,77.37
2018-06-09T21:16:36.006Z,77.17
2018-06-09T21:19:03.875Z,77.16
2018-06-09T21:21:31.559Z,77.42
2018-06-09T21:23:59.242Z,78.11
2018-06-09T21:26:32.597Z,77.78
2018-06-09T21:29:00.347Z,78.14
2018-06-09T21:31:33.031Z,78.29
2018-06-09T21:34:06.407Z,78.61
2018-06-09T21:36:39.867Z,79.36
2018-06-09T21:39:13.742Z,79.52
2018-06-09T21:41:47.208Z,78.71
2018-06-09T21:44:20.747Z,79.00
2018-06-09T21:46:48.673Z,79.09
2018-06-09T21:49:16.654Z,79.58
2018-06-09T21:51:44.374Z,79.80
2018-06-09T21:54:12.051Z,79.88
2018-06-09T21:56:39.741Z,80.24
2018-06-09T21:59:07.482Z,80.02
2018-06-09T22:01:35.587Z,80.86
2018-06-09T22:04:03.318Z,80.44
2018-06-09T22:06:31.002Z,80.27
2018-06-09T22:08:58.753Z,79.23
2018-06-09T22:11:26.507Z,79.98
2018-06-09T22:13:54.474Z,79.84
2018-06-09T22:16:22.172Z,79.10
2018-06-09T22:18:49.868Z,78.47
2018-06-09T22:21:17.604Z,78.88
2018-06-09T22:23:45.292Z,79.74
2018-06-09T22:26:16.252Z,80.79
2018-06-09T22:28:43.985Z,81.08
2018-06-09T22:31:11.686Z,81.38
2018-06-09T22:33:39.377Z,81.12
2018-06-09T22:36:07.160Z,81.05
2018-06-09T22:38:34.914Z,81.37
2018-06-09T22:41:02.635Z,81.44
2018-06-09T22:43:30.358Z,81.57
2018-06-09T22:45:58.098Z,81.09
2018-06-09T22:48:25.859Z,79.82
2018-06-09T22:50:53.632Z,80.03
2018-06-09T22:53:21.355Z,80.15
2018-06-09T22:55:49.035Z,80.93
2018-06-09T22:58:16.734Z,81.39
2018-06-09T23:00:48.448Z,81.48
2018-06-09T23:03:16.436Z,81.67
2018-06-09T23:05:44.598Z,81.94
2018-06-09T23:08:12.311Z,81.59
2018-06-09T23:10:40.024Z,81.76
2018-06-09T23:13:07.721Z,81.04
2018-06-09T23:15:35.596Z,81.25
2018-06-09T23:18:03.309Z,81.81
2018-06-09T23:20:31.059Z,81.66
2018-06-09T23:22:58.760Z,81.59
2018-06-09T23:25:26.529Z,81.20
2018-06-09T23:27:54.202Z,80.84
2018-06-09T23:30:21.896Z,80.86
2018-06-09T23:32:49.622Z,81.45
2018-06-09T23:35:17.343Z,81.44
2018-06-09T23:37:45.028Z,81.64
2018-06-09T23:40:12.822Z,81.83
2018-06-09T23:42:40.541Z,80.81
2018-06-09T23:45:08.249Z,80.50
2018-06-09T23:47:35.932Z,80.21
2018-06-09T23:50:03.743Z,80.99
2018-06-09T23:52:31.472Z,81.26
2018-06-09T23:54:59.183Z,81.59
2018-06-09T23:57:26.874Z,82.70
2018-06-09T23:59:54.545Z,82.46
